sensor_id;sensor_type;location;lat;lon;timestamp;temperature;humidity
10911;DHT22;5508;49.150;11.030;2023-02-01T00:02:46;1.70;99.90
10911;DHT22;5508;49.150;11.030;2023-02-01T00:05:58;1.70;99.90
10911;DHT22;5508;49.150;11.030;2023-02-01T00:08:58;1.80;99.90
10911;DHT22;5508;49.150;11.030;2023-02-01T00:11:59;1.80;99.90
10911;DHT22;5508;49.150;11.030;2023-02-01T00:15:02;1.80;99.90
10911;DHT22;5508;49.150;11.030;2023-02-01T00:18:02;1.80;99.90
10911;DHT22;5508;49.150;11.030;2023-02-01T00:21:04;1.80;99.90
10911;DHT22;5508;49.150;11.030;2023-02-01T00:24:05;1.90;99.90
10911;DHT22;5508;49.150;11.030;2023-02-01T00:27:06;1.90;99.90
10911;DHT22;5508;49.150;11.030;2023-02-01T00:30:07;1.90;99.90
10911;DHT22;5508;49.150;11.030;2023-02-01T00:33:08;2.00;99.90
10911;DHT22;5508;49.150;11.030;2023-02-01T00:36:09;2.00;99.90
10911;DHT22;5508;49.150;11.030;2023-02-01T00:39:11;2.00;99.90
10911;DHT22;5508;49.150;11.030;2023-02-01T00:42:11;2.00;99.90
10911;DHT22;5508;49.150;11.030;2023-02-01T00:45:12;2.00;99.90
10911;DHT22;5508;49.150;11.030;2023-02-01T00:48:13;2.10;99.90
10911;DHT22;5508;49.150;11.030;2023-02-01T00:51:15;2.00;99.90
10911;DHT22;5508;49.150;11.030;2023-02-01T00:54:16;2.00;99.90
10911;DHT22;5508;49.150;11.030;2023-02-01T00:57:17;2.00;99.90
10911;DHT22;5508;49.150;11.030;2023-02-01T01:00:17;2.00;99.90
10911;DHT22;5508;49.150;11.030;2023-02-01T01:03:18;2.10;99.90
10911;DHT22;5508;49.150;11.030;2023-02-01T01:06:25;2.10;99.90
10911;DHT22;5508;49.150;11.030;2023-02-01T01:09:25;2.10;99.90
10911;DHT22;5508;49.150;11.030;2023-02-01T01:12:26;2.10;99.90
10911;DHT22;5508;49.150;11.030;2023-02-01T01:15:27;2.10;99.90
10911;DHT22;5508;49.150;11.030;2023-02-01T01:18:28;2.10;99.90
10911;DHT22;5508;49.150;11.030;2023-02-01T01:21:29;2.10;99.90
10911;DHT22;5508;49.150;11.030;2023-02-01T01:24:30;2.20;99.90
10911;DHT22;5508;49.150;11.030;2023-02-01T01:27:30;2.10;99.90
10911;DHT22;5508;49.150;11.030;2023-02-01T01:30:31;2.20;99.90
10911;DHT22;5508;49.150;11.030;2023-02-01T01:33:32;2.20;99.90
10911;DHT22;5508;49.150;11.030;2023-02-01T01:36:32;2.30;99.90
10911;DHT22;5508;49.150;11.030;2023-02-01T01:39:33;2.30;99.90
10911;DHT22;5508;49.150;11.030;2023-02-01T01:42:41;2.30;99.90
10911;DHT22;5508;49.150;11.030;2023-02-01T01:45:42;2.30;99.90
10911;DHT22;5508;49.150;11.030;2023-02-01T01:48:43;2.30;99.90
10911;DHT22;5508;49.150;11.030;2023-02-01T01:51:48;2.30;99.90
10911;DHT22;5508;49.150;11.030;2023-02-01T01:54:51;2.30;99.90
10911;DHT22;5508;49.150;11.030;2023-02-01T01:58:04;2.30;99.90
10911;DHT22;5508;49.150;11.030;2023-02-01T02:01:05;2.30;99.90
10911;DHT22;5508;49.150;11.030;2023-02-01T02:04:06;2.30;99.90
10911;DHT22;5508;49.150;11.030;2023-02-01T02:07:17;2.30;99.90
10911;DHT22;5508;49.150;11.030;2023-02-01T02:10:19;2.20;99.90
10911;DHT22;5508;49.150;11.030;2023-02-01T02:13:20;2.30;99.90
10911;DHT22;5508;49.150;11.030;2023-02-01T02:20:24;2.30;99.90
10911;DHT22;5508;49.150;11.030;2023-02-01T02:27:21;2.30;99.90
10911;DHT22;5508;49.150;11.030;2023-02-01T02:37:04;2.30;99.90
10911;DHT22;5508;49.150;11.030;2023-02-01T02:46:43;2.30;99.90
10911;DHT22;5508;49.150;11.030;2023-02-01T02:50:12;2.30;99.90
10911;DHT22;5508;49.150;11.030;2023-02-01T02:53:38;2.30;99.90
10911;DHT22;5508;49.150;11.030;2023-02-01T02:57:02;2.40;99.90
10911;DHT22;5508;49.150;11.030;2023-02-01T03:00:28;2.40;99.90
10911;DHT22;5508;49.150;11.030;2023-02-01T03:03:48;2.40;99.90
10911;DHT22;5508;49.150;11.030;2023-02-01T03:13:56;2.40;99.90
10911;DHT22;5508;49.150;11.030;2023-02-01T03:17:03;2.50;99.90
10911;DHT22;5508;49.150;11.030;2023-02-01T03:20:07;2.40;99.90
10911;DHT22;5508;49.150;11.030;2023-02-01T03:23:10;2.50;99.90
10911;DHT22;5508;49.150;11.030;2023-02-01T03:26:13;2.50;99.90
10911;DHT22;5508;49.150;11.030;2023-02-01T03:29:23;2.50;99.90
10911;DHT22;5508;49.150;11.030;2023-02-01T03:32:24;2.60;99.90
10911;DHT22;5508;49.150;11.030;2023-02-01T03:41:59;2.60;99.90
10911;DHT22;5508;49.150;11.030;2023-02-01T03:45:10;2.60;99.90
10911;DHT22;5508;49.150;11.030;2023-02-01T03:48:14;2.60;99.90
10911;DHT22;5508;49.150;11.030;2023-02-01T03:51:17;2.70;99.90
10911;DHT22;5508;49.150;11.030;2023-02-01T03:54:20;2.60;99.90
10911;DHT22;5508;49.150;11.030;2023-02-01T03:57:27;2.70;99.90
10911;DHT22;5508;49.150;11.030;2023-02-01T04:00:29;2.70;99.90
10911;DHT22;5508;49.150;11.030;2023-02-01T04:03:29;2.70;99.90
10911;DHT22;5508;49.150;11.030;2023-02-01T04:06:30;2.70;99.90
10911;DHT22;5508;49.150;11.030;2023-02-01T04:09:31;2.70;99.90
10911;DHT22;5508;49.150;11.030;2023-02-01T04:12:31;2.60;99.90
10911;DHT22;5508;49.150;11.030;2023-02-01T04:15:32;2.70;99.90
10911;DHT22;5508;49.150;11.030;2023-02-01T04:18:34;2.70;99.90
10911;DHT22;5508;49.150;11.030;2023-02-01T04:21:35;2.70;99.90
10911;DHT22;5508;49.150;11.030;2023-02-01T04:24:35;2.70;99.90
10911;DHT22;5508;49.150;11.030;2023-02-01T04:27:36;2.70;99.90
10911;DHT22;5508;49.150;11.030;2023-02-01T04:30:37;2.70;99.90
10911;DHT22;5508;49.150;11.030;2023-02-01T04:33:37;2.80;99.90
10911;DHT22;5508;49.150;11.030;2023-02-01T04:36:38;2.80;99.90
10911;DHT22;5508;49.150;11.030;2023-02-01T04:39:39;2.80;99.90
10911;DHT22;5508;49.150;11.030;2023-02-01T04:42:39;2.80;99.90
10911;DHT22;5508;49.150;11.030;2023-02-01T04:45:40;2.80;99.90
10911;DHT22;5508;49.150;11.030;2023-02-01T04:48:41;2.80;99.90
10911;DHT22;5508;49.150;11.030;2023-02-01T04:51:42;2.70;99.90
10911;DHT22;5508;49.150;11.030;2023-02-01T04:54:43;2.70;99.90
10911;DHT22;5508;49.150;11.030;2023-02-01T04:57:43;2.70;99.90
10911;DHT22;5508;49.150;11.030;2023-02-01T05:00:44;2.70;99.90
10911;DHT22;5508;49.150;11.030;2023-02-01T05:03:44;2.70;99.90
10911;DHT22;5508;49.150;11.030;2023-02-01T05:06:45;2.70;99.90
10911;DHT22;5508;49.150;11.030;2023-02-01T05:09:46;2.70;99.90
10911;DHT22;5508;49.150;11.030;2023-02-01T05:12:46;2.70;99.90
10911;DHT22;5508;49.150;11.030;2023-02-01T05:16:06;2.80;99.90
10911;DHT22;5508;49.150;11.030;2023-02-01T05:19:07;2.70;99.90
10911;DHT22;5508;49.150;11.030;2023-02-01T05:22:07;2.80;99.90
10911;DHT22;5508;49.150;11.030;2023-02-01T05:25:08;2.80;99.90
10911;DHT22;5508;49.150;11.030;2023-02-01T05:28:09;2.80;99.90
10911;DHT22;5508;49.150;11.030;2023-02-01T05:31:10;2.80;99.90
10911;DHT22;5508;49.150;11.030;2023-02-01T05:34:11;2.90;99.90
10911;DHT22;5508;49.150;11.030;2023-02-01T05:37:12;2.80;99.90
10911;DHT22;5508;49.150;11.030;2023-02-01T05:40:12;2.80;99.90
10911;DHT22;5508;49.150;11.030;2023-02-01T05:43:13;2.80;99.90
10911;DHT22;5508;49.150;11.030;2023-02-01T05:46:14;2.80;99.90
10911;DHT22;5508;49.150;11.030;2023-02-01T05:49:14;2.90;99.90
10911;DHT22;5508;49.150;11.030;2023-02-01T05:52:15;2.90;99.90
10911;DHT22;5508;49.150;11.030;2023-02-01T05:55:22;2.90;99.90
10911;DHT22;5508;49.150;11.030;2023-02-01T05:58:23;2.90;99.90
10911;DHT22;5508;49.150;11.030;2023-02-01T06:01:23;3.00;99.90
10911;DHT22;5508;49.150;11.030;2023-02-01T06:04:24;3.00;99.90
10911;DHT22;5508;49.150;11.030;2023-02-01T06:07:25;3.00;99.90
10911;DHT22;5508;49.150;11.030;2023-02-01T06:10:25;3.00;99.90
10911;DHT22;5508;49.150;11.030;2023-02-01T06:13:26;3.00;99.90
10911;DHT22;5508;49.150;11.030;2023-02-01T06:16:27;3.10;99.90
10911;DHT22;5508;49.150;11.030;2023-02-01T06:19:27;3.00;99.90
10911;DHT22;5508;49.150;11.030;2023-02-01T06:22:28;3.10;99.90
10911;DHT22;5508;49.150;11.030;2023-02-01T06:25:29;3.00;99.90
10911;DHT22;5508;49.150;11.030;2023-02-01T06:28:31;3.10;99.90
10911;DHT22;5508;49.150;11.030;2023-02-01T06:31:32;3.00;99.90
10911;DHT22;5508;49.150;11.030;2023-02-01T06:34:34;3.10;99.90
10911;DHT22;5508;49.150;11.030;2023-02-01T06:37:36;3.10;99.90
10911;DHT22;5508;49.150;11.030;2023-02-01T06:40:38;3.10;99.90
10911;DHT22;5508;49.150;11.030;2023-02-01T06:43:38;3.10;99.90
10911;DHT22;5508;49.150;11.030;2023-02-01T06:46:39;3.10;99.90
10911;DHT22;5508;49.150;11.030;2023-02-01T06:49:39;3.10;99.90
10911;DHT22;5508;49.150;11.030;2023-02-01T06:52:40;3.10;99.90
10911;DHT22;5508;49.150;11.030;2023-02-01T06:55:41;3.10;99.90
10911;DHT22;5508;49.150;11.030;2023-02-01T06:58:42;3.10;99.90
10911;DHT22;5508;49.150;11.030;2023-02-01T07:01:42;3.10;99.90
10911;DHT22;5508;49.150;11.030;2023-02-01T07:04:43;3.00;99.90
10911;DHT22;5508;49.150;11.030;2023-02-01T07:07:43;2.90;99.90
10911;DHT22;5508;49.150;11.030;2023-02-01T07:10:44;2.80;99.90
10911;DHT22;5508;49.150;11.030;2023-02-01T07:13:45;2.80;99.90
10911;DHT22;5508;49.150;11.030;2023-02-01T07:16:45;2.70;99.90
10911;DHT22;5508;49.150;11.030;2023-02-01T07:19:46;2.60;99.90
10911;DHT22;5508;49.150;11.030;2023-02-01T07:22:47;2.60;99.90
10911;DHT22;5508;49.150;11.030;2023-02-01T07:25:47;2.50;99.90
10911;DHT22;5508;49.150;11.030;2023-02-01T07:28:48;2.50;99.90
10911;DHT22;5508;49.150;11.030;2023-02-01T07:31:49;2.60;99.90
10911;DHT22;5508;49.150;11.030;2023-02-01T07:34:49;2.50;99.90
10911;DHT22;5508;49.150;11.030;2023-02-01T07:37:50;2.60;99.90
10911;DHT22;5508;49.150;11.030;2023-02-01T07:40:50;2.50;99.90
10911;DHT22;5508;49.150;11.030;2023-02-01T07:43:54;2.50;99.90
10911;DHT22;5508;49.150;11.030;2023-02-01T07:46:55;2.50;99.90
10911;DHT22;5508;49.150;11.030;2023-02-01T07:49:55;2.40;99.90
10911;DHT22;5508;49.150;11.030;2023-02-01T07:52:59;2.50;99.90
10911;DHT22;5508;49.150;11.030;2023-02-01T07:56:02;2.50;99.90
10911;DHT22;5508;49.150;11.030;2023-02-01T07:59:03;2.50;99.90
10911;DHT22;5508;49.150;11.030;2023-02-01T08:02:03;2.50;99.90
10911;DHT22;5508;49.150;11.030;2023-02-01T08:05:04;2.50;99.90
10911;DHT22;5508;49.150;11.030;2023-02-01T08:08:06;2.50;99.90
10911;DHT22;5508;49.150;11.030;2023-02-01T08:11:07;2.50;99.90
10911;DHT22;5508;49.150;11.030;2023-02-01T08:14:07;2.50;99.90
10911;DHT22;5508;49.150;11.030;2023-02-01T08:17:08;2.50;99.90
10911;DHT22;5508;49.150;11.030;2023-02-01T08:20:09;2.50;99.90
10911;DHT22;5508;49.150;11.030;2023-02-01T08:23:10;2.50;99.90
10911;DHT22;5508;49.150;11.030;2023-02-01T08:26:22;2.50;99.90
10911;DHT22;5508;49.150;11.030;2023-02-01T08:29:23;2.40;99.90
10911;DHT22;5508;49.150;11.030;2023-02-01T08:32:24;2.50;99.90
10911;DHT22;5508;49.150;11.030;2023-02-01T08:35:25;2.60;99.90
10911;DHT22;5508;49.150;11.030;2023-02-01T08:38:25;2.60;99.90
10911;DHT22;5508;49.150;11.030;2023-02-01T08:41:28;2.70;99.90
10911;DHT22;5508;49.150;11.030;2023-02-01T08:44:29;2.80;99.90
10911;DHT22;5508;49.150;11.030;2023-02-01T08:47:30;2.90;99.90
10911;DHT22;5508;49.150;11.030;2023-02-01T08:50:31;2.90;99.90
10911;DHT22;5508;49.150;11.030;2023-02-01T08:53:31;2.90;99.90
10911;DHT22;5508;49.150;11.030;2023-02-01T08:56:32;3.00;99.90
10911;DHT22;5508;49.150;11.030;2023-02-01T08:59:33;3.00;99.90
10911;DHT22;5508;49.150;11.030;2023-02-01T09:02:33;3.10;99.90
10911;DHT22;5508;49.150;11.030;2023-02-01T09:05:34;3.10;99.90
10911;DHT22;5508;49.150;11.030;2023-02-01T09:08:36;3.10;99.90
10911;DHT22;5508;49.150;11.030;2023-02-01T09:11:37;3.20;99.90
10911;DHT22;5508;49.150;11.030;2023-02-01T09:14:37;3.20;99.90
10911;DHT22;5508;49.150;11.030;2023-02-01T09:17:38;3.20;99.90
10911;DHT22;5508;49.150;11.030;2023-02-01T09:20:39;3.20;99.90
10911;DHT22;5508;49.150;11.030;2023-02-01T09:23:40;3.20;99.90
10911;DHT22;5508;49.150;11.030;2023-02-01T09:26:41;3.30;99.90
10911;DHT22;5508;49.150;11.030;2023-02-01T09:29:41;3.40;99.90
10911;DHT22;5508;49.150;11.030;2023-02-01T09:32:42;3.40;99.90
10911;DHT22;5508;49.150;11.030;2023-02-01T09:35:43;3.40;99.90
10911;DHT22;5508;49.150;11.030;2023-02-01T09:38:43;3.50;99.90
10911;DHT22;5508;49.150;11.030;2023-02-01T09:48:34;3.60;99.90
10911;DHT22;5508;49.150;11.030;2023-02-01T09:51:38;3.60;99.90
10911;DHT22;5508;49.150;11.030;2023-02-01T09:54:47;3.60;98.40
10911;DHT22;5508;49.150;11.030;2023-02-01T09:57:55;3.60;98.90
10911;DHT22;5508;49.150;11.030;2023-02-01T10:01:00;3.60;97.00
10911;DHT22;5508;49.150;11.030;2023-02-01T10:04:10;3.60;96.80
10911;DHT22;5508;49.150;11.030;2023-02-01T10:26:21;4.20;90.10
10911;DHT22;5508;49.150;11.030;2023-02-01T10:29:26;4.30;89.90
10911;DHT22;5508;49.150;11.030;2023-02-01T10:32:32;4.40;90.90
10911;DHT22;5508;49.150;11.030;2023-02-01T10:35:36;4.40;88.90
10911;DHT22;5508;49.150;11.030;2023-02-01T10:38:38;4.40;89.10
10911;DHT22;5508;49.150;11.030;2023-02-01T10:41:40;4.70;87.30
10911;DHT22;5508;49.150;11.030;2023-02-01T10:44:43;4.70;89.00
10911;DHT22;5508;49.150;11.030;2023-02-01T10:47:48;4.90;88.70
10911;DHT22;5508;49.150;11.030;2023-02-01T10:50:58;5.10;86.20
10911;DHT22;5508;49.150;11.030;2023-02-01T10:54:16;5.20;86.30
10911;DHT22;5508;49.150;11.030;2023-02-01T10:57:25;5.30;85.80
10911;DHT22;5508;49.150;11.030;2023-02-01T11:00:47;5.30;84.10
10911;DHT22;5508;49.150;11.030;2023-02-01T11:03:56;4.90;85.00
10911;DHT22;5508;49.150;11.030;2023-02-01T11:07:13;4.80;85.50
10911;DHT22;5508;49.150;11.030;2023-02-01T11:10:37;4.80;86.50
10911;DHT22;5508;49.150;11.030;2023-02-01T11:13:39;4.70;87.00
10911;DHT22;5508;49.150;11.030;2023-02-01T11:16:40;4.80;85.80
10911;DHT22;5508;49.150;11.030;2023-02-01T11:20:14;4.80;87.50
10911;DHT22;5508;49.150;11.030;2023-02-01T11:23:17;4.90;86.20
10911;DHT22;5508;49.150;11.030;2023-02-01T11:26:25;4.80;88.40
10911;DHT22;5508;49.150;11.030;2023-02-01T11:29:37;4.80;88.90
10911;DHT22;5508;49.150;11.030;2023-02-01T11:32:39;4.70;89.00
10911;DHT22;5508;49.150;11.030;2023-02-01T11:35:41;4.60;90.50
10911;DHT22;5508;49.150;11.030;2023-02-01T11:39:10;4.40;92.90
10911;DHT22;5508;49.150;11.030;2023-02-01T11:42:17;4.10;96.70
10911;DHT22;5508;49.150;11.030;2023-02-01T11:45:29;4.00;98.60
10911;DHT22;5508;49.150;11.030;2023-02-01T11:48:32;3.80;99.90
10911;DHT22;5508;49.150;11.030;2023-02-01T11:51:46;3.70;99.90
10911;DHT22;5508;49.150;11.030;2023-02-01T11:58:46;3.50;99.90
10911;DHT22;5508;49.150;11.030;2023-02-01T12:15:27;3.40;99.90
10911;DHT22;5508;49.150;11.030;2023-02-01T12:25:09;3.90;99.90
10911;DHT22;5508;49.150;11.030;2023-02-01T12:31:49;4.00;99.90
10911;DHT22;5508;49.150;11.030;2023-02-01T12:41:49;4.20;99.80
10911;DHT22;5508;49.150;11.030;2023-02-01T12:44:55;4.20;98.70
10911;DHT22;5508;49.150;11.030;2023-02-01T12:51:28;4.30;94.30
10911;DHT22;5508;49.150;11.030;2023-02-01T12:58:12;4.50;89.70
10911;DHT22;5508;49.150;11.030;2023-02-01T13:04:31;4.60;86.80
10911;DHT22;5508;49.150;11.030;2023-02-01T13:07:53;4.50;85.20
10911;DHT22;5508;49.150;11.030;2023-02-01T13:11:11;4.50;84.10
10911;DHT22;5508;49.150;11.030;2023-02-01T13:17:32;4.60;83.80
10911;DHT22;5508;49.150;11.030;2023-02-01T13:21:02;4.70;86.10
10911;DHT22;5508;49.150;11.030;2023-02-01T13:24:04;4.80;85.60
10911;DHT22;5508;49.150;11.030;2023-02-01T13:27:05;4.90;84.50
10911;DHT22;5508;49.150;11.030;2023-02-01T13:33:17;4.90;84.90
10911;DHT22;5508;49.150;11.030;2023-02-01T13:36:30;5.00;82.60
10911;DHT22;5508;49.150;11.030;2023-02-01T13:43:16;4.90;82.00
10911;DHT22;5508;49.150;11.030;2023-02-01T13:46:18;4.90;82.20
10911;DHT22;5508;49.150;11.030;2023-02-01T13:49:22;4.70;82.30
10911;DHT22;5508;49.150;11.030;2023-02-01T13:52:50;4.80;84.20
10911;DHT22;5508;49.150;11.030;2023-02-01T13:56:00;4.70;81.10
10911;DHT22;5508;49.150;11.030;2023-02-01T14:08:46;4.30;83.50
10911;DHT22;5508;49.150;11.030;2023-02-01T14:12:42;4.20;83.20
10911;DHT22;5508;49.150;11.030;2023-02-01T14:19:08;4.10;85.80
10911;DHT22;5508;49.150;11.030;2023-02-01T14:25:24;4.00;85.80
10911;DHT22;5508;49.150;11.030;2023-02-01T14:28:28;3.90;87.20
10911;DHT22;5508;49.150;11.030;2023-02-01T14:37:51;3.90;87.20
10911;DHT22;5508;49.150;11.030;2023-02-01T14:40:52;4.00;87.00
10911;DHT22;5508;49.150;11.030;2023-02-01T14:47:10;4.00;87.30
10911;DHT22;5508;49.150;11.030;2023-02-01T14:50:27;4.00;86.60
10911;DHT22;5508;49.150;11.030;2023-02-01T14:53:34;3.90;87.80
10911;DHT22;5508;49.150;11.030;2023-02-01T14:56:35;4.00;86.50
10911;DHT22;5508;49.150;11.030;2023-02-01T14:59:36;3.90;87.20
10911;DHT22;5508;49.150;11.030;2023-02-01T15:02:39;3.90;86.60
10911;DHT22;5508;49.150;11.030;2023-02-01T15:05:40;3.90;85.60
10911;DHT22;5508;49.150;11.030;2023-02-01T15:08:41;3.90;85.90
10911;DHT22;5508;49.150;11.030;2023-02-01T15:12:04;4.00;85.50
10911;DHT22;5508;49.150;11.030;2023-02-01T15:15:24;3.90;85.30
10911;DHT22;5508;49.150;11.030;2023-02-01T15:18:25;3.90;85.20
10911;DHT22;5508;49.150;11.030;2023-02-01T15:21:25;4.00;84.10
10911;DHT22;5508;49.150;11.030;2023-02-01T15:24:30;4.00;83.50
10911;DHT22;5508;49.150;11.030;2023-02-01T15:27:32;4.00;85.30
10911;DHT22;5508;49.150;11.030;2023-02-01T15:30:35;4.00;83.80
10911;DHT22;5508;49.150;11.030;2023-02-01T15:33:35;4.00;83.90
10911;DHT22;5508;49.150;11.030;2023-02-01T15:36:36;3.90;83.20
10911;DHT22;5508;49.150;11.030;2023-02-01T15:43:12;3.90;83.40
10911;DHT22;5508;49.150;11.030;2023-02-01T15:46:22;3.90;82.70
10911;DHT22;5508;49.150;11.030;2023-02-01T15:49:31;3.90;82.60
10911;DHT22;5508;49.150;11.030;2023-02-01T15:52:37;3.90;83.30
10911;DHT22;5508;49.150;11.030;2023-02-01T15:55:40;3.90;83.10
10911;DHT22;5508;49.150;11.030;2023-02-01T15:58:45;3.90;82.80
10911;DHT22;5508;49.150;11.030;2023-02-01T16:01:48;3.80;82.70
10911;DHT22;5508;49.150;11.030;2023-02-01T16:04:50;3.90;82.00
10911;DHT22;5508;49.150;11.030;2023-02-01T16:08:01;3.90;82.60
10911;DHT22;5508;49.150;11.030;2023-02-01T16:14:07;3.90;82.80
10911;DHT22;5508;49.150;11.030;2023-02-01T16:17:08;3.80;83.30
10911;DHT22;5508;49.150;11.030;2023-02-01T16:20:10;3.80;83.50
10911;DHT22;5508;49.150;11.030;2023-02-01T16:23:11;3.90;83.30
10911;DHT22;5508;49.150;11.030;2023-02-01T16:26:11;3.80;84.50
10911;DHT22;5508;49.150;11.030;2023-02-01T16:29:12;3.80;82.80
10911;DHT22;5508;49.150;11.030;2023-02-01T16:32:22;3.80;83.50
10911;DHT22;5508;49.150;11.030;2023-02-01T16:35:32;3.80;83.90
10911;DHT22;5508;49.150;11.030;2023-02-01T16:38:35;3.80;82.60
10911;DHT22;5508;49.150;11.030;2023-02-01T16:41:36;3.80;83.50
10911;DHT22;5508;49.150;11.030;2023-02-01T16:44:37;3.80;83.40
10911;DHT22;5508;49.150;11.030;2023-02-01T16:47:39;3.80;82.30
10911;DHT22;5508;49.150;11.030;2023-02-01T16:50:40;3.80;82.50
10911;DHT22;5508;49.150;11.030;2023-02-01T16:53:41;3.80;82.60
10911;DHT22;5508;49.150;11.030;2023-02-01T16:56:42;3.80;82.60
10911;DHT22;5508;49.150;11.030;2023-02-01T16:59:44;3.80;82.90
10911;DHT22;5508;49.150;11.030;2023-02-01T17:02:45;3.90;83.20
10911;DHT22;5508;49.150;11.030;2023-02-01T17:05:52;3.80;83.30
10911;DHT22;5508;49.150;11.030;2023-02-01T17:08:55;3.80;83.40
10911;DHT22;5508;49.150;11.030;2023-02-01T17:11:58;3.90;82.70
10911;DHT22;5508;49.150;11.030;2023-02-01T17:14:59;3.90;82.20
10911;DHT22;5508;49.150;11.030;2023-02-01T17:18:00;3.90;82.70
10911;DHT22;5508;49.150;11.030;2023-02-01T17:21:03;3.90;82.70
10911;DHT22;5508;49.150;11.030;2023-02-01T17:24:06;3.90;82.60
10911;DHT22;5508;49.150;11.030;2023-02-01T17:27:06;3.80;82.60
10911;DHT22;5508;49.150;11.030;2023-02-01T17:30:08;3.80;82.70
10911;DHT22;5508;49.150;11.030;2023-02-01T17:33:26;3.90;82.60
10911;DHT22;5508;49.150;11.030;2023-02-01T17:36:27;3.90;82.80
10911;DHT22;5508;49.150;11.030;2023-02-01T17:39:28;3.90;82.60
10911;DHT22;5508;49.150;11.030;2023-02-01T17:42:47;3.90;82.90
10911;DHT22;5508;49.150;11.030;2023-02-01T17:46:10;3.90;82.60
10911;DHT22;5508;49.150;11.030;2023-02-01T17:49:11;3.90;82.60
10911;DHT22;5508;49.150;11.030;2023-02-01T17:52:16;3.90;82.70
10911;DHT22;5508;49.150;11.030;2023-02-01T17:55:22;3.90;82.80
10911;DHT22;5508;49.150;11.030;2023-02-01T17:58:24;3.90;82.70
10911;DHT22;5508;49.150;11.030;2023-02-01T18:01:25;3.90;82.80
10911;DHT22;5508;49.150;11.030;2023-02-01T18:04:26;3.90;82.80
10911;DHT22;5508;49.150;11.030;2023-02-01T18:07:27;3.90;83.00
10911;DHT22;5508;49.150;11.030;2023-02-01T18:10:27;3.80;83.20
10911;DHT22;5508;49.150;11.030;2023-02-01T18:13:29;3.80;83.00
10911;DHT22;5508;49.150;11.030;2023-02-01T18:16:32;3.80;82.70
10911;DHT22;5508;49.150;11.030;2023-02-01T18:19:33;3.80;84.00
10911;DHT22;5508;49.150;11.030;2023-02-01T18:22:34;3.90;82.80
10911;DHT22;5508;49.150;11.030;2023-02-01T18:25:34;3.90;83.00
10911;DHT22;5508;49.150;11.030;2023-02-01T18:28:37;3.90;82.90
10911;DHT22;5508;49.150;11.030;2023-02-01T18:31:45;3.90;82.80
10911;DHT22;5508;49.150;11.030;2023-02-01T18:34:46;3.90;82.90
10911;DHT22;5508;49.150;11.030;2023-02-01T18:37:48;3.90;82.80
10911;DHT22;5508;49.150;11.030;2023-02-01T18:40:51;3.90;83.60
10911;DHT22;5508;49.150;11.030;2023-02-01T18:43:52;3.90;84.10
10911;DHT22;5508;49.150;11.030;2023-02-01T18:46:53;3.90;83.40
10911;DHT22;5508;49.150;11.030;2023-02-01T18:49:54;3.90;83.60
10911;DHT22;5508;49.150;11.030;2023-02-01T18:52:56;3.90;83.90
10911;DHT22;5508;49.150;11.030;2023-02-01T18:55:58;4.00;83.50
10911;DHT22;5508;49.150;11.030;2023-02-01T18:58:58;3.90;84.10
10911;DHT22;5508;49.150;11.030;2023-02-01T19:01:59;3.90;83.20
10911;DHT22;5508;49.150;11.030;2023-02-01T19:05:00;4.00;83.20
10911;DHT22;5508;49.150;11.030;2023-02-01T19:08:00;4.00;83.10
10911;DHT22;5508;49.150;11.030;2023-02-01T19:11:08;4.10;82.30
10911;DHT22;5508;49.150;11.030;2023-02-01T19:14:11;4.10;82.40
10911;DHT22;5508;49.150;11.030;2023-02-01T19:17:12;4.00;82.70
10911;DHT22;5508;49.150;11.030;2023-02-01T19:20:18;4.10;82.80
10911;DHT22;5508;49.150;11.030;2023-02-01T19:23:19;4.00;82.80
10911;DHT22;5508;49.150;11.030;2023-02-01T19:26:20;4.00;82.80
10911;DHT22;5508;49.150;11.030;2023-02-01T19:29:21;4.00;82.80
10911;DHT22;5508;49.150;11.030;2023-02-01T19:32:21;3.90;83.40
10911;DHT22;5508;49.150;11.030;2023-02-01T19:35:22;3.90;83.50
10911;DHT22;5508;49.150;11.030;2023-02-01T19:38:23;4.00;83.50
10911;DHT22;5508;49.150;11.030;2023-02-01T19:41:23;4.10;82.30
10911;DHT22;5508;49.150;11.030;2023-02-01T19:44:25;4.10;82.10
10911;DHT22;5508;49.150;11.030;2023-02-01T19:47:27;4.10;82.10
10911;DHT22;5508;49.150;11.030;2023-02-01T19:50:28;4.00;82.00
10911;DHT22;5508;49.150;11.030;2023-02-01T19:53:28;4.00;81.60
10911;DHT22;5508;49.150;11.030;2023-02-01T19:56:29;4.10;82.40
10911;DHT22;5508;49.150;11.030;2023-02-01T19:59:30;4.10;82.40
10911;DHT22;5508;49.150;11.030;2023-02-01T20:02:31;4.10;82.10
10911;DHT22;5508;49.150;11.030;2023-02-01T20:05:32;4.10;84.10
10911;DHT22;5508;49.150;11.030;2023-02-01T20:08:32;3.90;85.40
10911;DHT22;5508;49.150;11.030;2023-02-01T20:11:33;3.80;86.50
10911;DHT22;5508;49.150;11.030;2023-02-01T20:14:34;3.80;87.50
10911;DHT22;5508;49.150;11.030;2023-02-01T20:17:34;3.80;86.60
10911;DHT22;5508;49.150;11.030;2023-02-01T20:20:37;3.70;86.40
10911;DHT22;5508;49.150;11.030;2023-02-01T20:23:37;3.80;85.30
10911;DHT22;5508;49.150;11.030;2023-02-01T20:26:38;3.80;84.90
10911;DHT22;5508;49.150;11.030;2023-02-01T20:29:39;3.90;85.40
10911;DHT22;5508;49.150;11.030;2023-02-01T20:32:42;3.80;87.40
10911;DHT22;5508;49.150;11.030;2023-02-01T20:35:44;3.80;89.70
10911;DHT22;5508;49.150;11.030;2023-02-01T20:38:44;3.60;89.70
10911;DHT22;5508;49.150;11.030;2023-02-01T20:41:45;3.70;90.00
10911;DHT22;5508;49.150;11.030;2023-02-01T20:44:45;3.60;91.10
10911;DHT22;5508;49.150;11.030;2023-02-01T20:47:49;3.80;88.40
10911;DHT22;5508;49.150;11.030;2023-02-01T20:50:56;3.80;89.40
10911;DHT22;5508;49.150;11.030;2023-02-01T20:53:57;3.80;88.80
10911;DHT22;5508;49.150;11.030;2023-02-01T20:56:58;3.80;89.70
10911;DHT22;5508;49.150;11.030;2023-02-01T20:59:58;3.80;89.50
10911;DHT22;5508;49.150;11.030;2023-02-01T21:02:59;3.80;88.90
10911;DHT22;5508;49.150;11.030;2023-02-01T21:06:01;3.80;89.10
10911;DHT22;5508;49.150;11.030;2023-02-01T21:09:02;3.90;88.20
10911;DHT22;5508;49.150;11.030;2023-02-01T21:12:03;3.90;87.80
10911;DHT22;5508;49.150;11.030;2023-02-01T21:15:04;3.90;88.30
10911;DHT22;5508;49.150;11.030;2023-02-01T21:18:05;3.90;90.60
10911;DHT22;5508;49.150;11.030;2023-02-01T21:21:12;3.80;91.70
10911;DHT22;5508;49.150;11.030;2023-02-01T21:24:13;3.70;91.90
10911;DHT22;5508;49.150;11.030;2023-02-01T21:27:14;3.70;90.50
10911;DHT22;5508;49.150;11.030;2023-02-01T21:30:15;3.80;89.80
10911;DHT22;5508;49.150;11.030;2023-02-01T21:33:15;3.90;89.40
10911;DHT22;5508;49.150;11.030;2023-02-01T21:36:16;3.90;88.40
10911;DHT22;5508;49.150;11.030;2023-02-01T21:39:20;3.90;88.00
10911;DHT22;5508;49.150;11.030;2023-02-01T21:42:22;3.90;87.60
10911;DHT22;5508;49.150;11.030;2023-02-01T21:45:23;4.00;86.50
10911;DHT22;5508;49.150;11.030;2023-02-01T21:48:24;4.10;87.20
10911;DHT22;5508;49.150;11.030;2023-02-01T21:51:24;4.00;86.60
10911;DHT22;5508;49.150;11.030;2023-02-01T21:54:25;4.10;86.40
10911;DHT22;5508;49.150;11.030;2023-02-01T21:57:29;4.10;86.00
10911;DHT22;5508;49.150;11.030;2023-02-01T22:00:30;4.20;85.80
10911;DHT22;5508;49.150;11.030;2023-02-01T22:03:30;4.10;86.70
10911;DHT22;5508;49.150;11.030;2023-02-01T22:06:37;4.20;86.90